Time;durP1;ratioP1;P1;durP2;ratioP2;P2;SDS_P1;SDS_P2;PMS_P1;PMS_P2;Temp;Humidity;BMP_temperature;BMP_pressure;BME280_temperature;BME280_humidity;BME280_pressure;Samples;Min_cycle;Max_cycle;Signal;HPM_P1;HPM_P2
2022/02/09 00:00:17;;;;;;;0.75;0.57;;;0.50;1.40;;;0.79;100.00;96728.23;650699;216;31530;-77
2022/02/09 00:03:10;;;;;;;1.70;1.60;;;0.40;1.40;;;0.74;100.00;96729.16;650504;216;31500;-77
2022/02/09 00:05:57;;;;;;;0.80;0.70;;;0.30;1.40;;;0.60;100.00;96736.02;645280;212;42975;-77
2022/02/09 00:08:28;;;;;;;0.80;0.80;;;0.20;1.40;;;0.49;100.00;96733.16;647444;212;31512;-77
2022/02/09 00:11:15;;;;;;;0.80;0.50;;;0.10;1.40;;;0.40;100.00;96733.58;619809;222;31856;-77
2022/02/09 00:13:58;;;;;;;0.70;0.70;;;0.00;1.40;;;0.32;100.00;96732.65;623096;226;31979;-78
2022/02/09 00:17:14;;;;;;;0.60;0.60;;;-0.10;1.40;;;0.31;100.00;96737.52;646449;212;31550;-76
2022/02/09 00:29:04;;;;;;;0.88;0.88;;;0.10;1.40;;;0.37;100.00;96737.47;646807;216;31501;-77
2022/02/09 00:31:52;;;;;;;1.40;1.10;;;0.00;1.40;;;0.33;100.00;96736.27;648893;216;35428;-78
2022/02/09 00:36:17;;;;;;;1.00;0.60;;;-0.10;1.40;;;0.27;100.00;96740.64;620511;226;32530;-77
2022/02/09 00:39:09;;;;;;;0.77;0.77;;;-0.10;1.40;;;0.31;100.00;96743.38;646380;216;42223;-77
2022/02/09 00:44:40;;;;;;;0.80;0.70;;;-0.10;1.40;;;0.26;100.00;96748.38;649191;212;31509;-78
2022/02/09 01:33:02;;;;;;;1.40;1.30;;;-0.10;1.40;;;0.25;100.00;96744.64;647001;212;31534;-77
2022/02/09 01:38:57;;;;;;;0.60;0.57;;;-0.50;1.40;;;-0.13;100.00;96745.86;647143;216;31681;-77
2022/02/09 01:56:02;;;;;;;0.70;0.70;;;-0.60;1.40;;;-0.22;100.00;96736.80;648162;216;42132;-77
2022/02/09 01:58:41;;;;;;;1.10;0.50;;;-0.60;1.40;;;-0.20;100.00;96734.23;619805;222;32290;-77
2022/02/09 02:01:22;;;;;;;0.40;0.30;;;-0.60;1.40;;;-0.12;100.00;96737.00;648727;216;42109;-77
2022/02/09 02:04:04;;;;;;;1.40;0.50;;;-0.40;1.40;;;-0.12;100.00;96745.03;646143;212;31480;-77
2022/02/09 02:06:49;;;;;;;0.60;0.50;;;-0.50;1.40;;;-0.11;100.00;96743.08;639611;212;31709;-77
2022/02/09 02:09:33;;;;;;;1.00;0.80;;;-0.40;1.40;;;-0.09;100.00;96737.98;648540;216;42376;-77
2022/02/09 02:12:16;;;;;;;0.40;0.40;;;-0.40;1.40;;;-0.04;100.00;96741.14;650754;212;42158;-77
2022/02/09 02:15:12;;;;;;;0.85;0.85;;;-0.40;1.40;;;-0.01;100.00;96737.94;646241;216;42174;-75
2022/02/09 02:17:49;;;;;;;0.40;0.30;;;-0.40;1.40;;;-0.02;100.00;96732.50;646336;216;42752;-77
2022/02/09 02:20:38;;;;;;;0.60;0.60;;;-0.40;1.40;;;0.03;100.00;96729.52;619374;225;31935;-77
2022/02/09 02:26:03;;;;;;;0.70;0.50;;;-0.40;1.40;;;0.05;100.00;96728.97;649878;212;31501;-77
2022/02/09 02:31:47;;;;;;;0.60;0.50;;;-0.30;1.40;;;0.10;100.00;96725.37;617148;224;31847;-77
2022/02/09 02:36:17;;;;;;;0.80;0.65;;;-0.20;1.40;;;0.05;100.00;96719.11;646555;212;31573;-74
2022/02/09 02:38:56;;;;;;;0.50;0.50;;;-0.30;1.40;;;-0.02;100.00;96711.55;619362;226;31897;-75
2022/02/09 02:45:28;;;;;;;0.60;0.50;;;-0.40;1.40;;;0.00;100.00;96709.22;647891;212;31576;-76
2022/02/09 02:56:57;;;;;;;0.70;0.70;;;-0.30;1.40;;;-0.05;100.00;96697.88;647960;216;31551;-74
2022/02/09 02:58:51;;;;;;;0.40;0.40;;;-0.40;1.40;;;-0.11;100.00;96685.87;648362;216;42324;-77
2022/02/09 03:12:36;;;;;;;0.70;0.40;;;-0.60;1.40;;;-0.25;100.00;96681.36;647415;216;31665;-78
2022/02/09 03:15:22;;;;;;;0.50;0.50;;;-0.60;1.40;;;-0.27;100.00;96674.44;647020;216;42281;-77
2022/02/09 03:21:01;;;;;;;1.40;0.40;;;-0.70;1.40;;;-0.36;100.00;96673.81;647130;212;42150;-77
2022/02/09 03:23:47;;;;;;;0.70;0.70;;;-0.80;1.40;;;-0.38;100.00;96675.73;650895;216;42098;-77
2022/02/09 03:26:50;;;;;;;0.70;0.70;;;-0.70;1.40;;;-0.22;100.00;96678.48;646768;216;42029;-78
2022/02/09 03:47:44;;;;;;;0.40;0.40;;;-0.40;1.40;;;-0.10;100.00;96670.83;625656;226;42613;-77
2022/02/09 03:56:27;;;;;;;1.50;1.40;;;-0.30;1.40;;;0.18;100.00;96646.83;647456;216;32126;-75
2022/02/09 03:59:13;;;;;;;0.50;0.50;;;-0.20;1.40;;;0.15;100.00;96650.08;620724;226;42500;-78
2022/02/09 04:01:53;;;;;;;0.88;0.50;;;-0.30;1.40;;;0.14;100.00;96644.16;646877;212;31474;-77
2022/02/09 04:04:34;;;;;;;1.00;0.50;;;-0.30;1.40;;;0.12;100.00;96644.62;646963;216;42255;-77
2022/02/09 04:07:16;;;;;;;0.60;0.60;;;-0.30;1.40;;;0.11;100.00;96631.31;638527;212;42267;-78
2022/02/09 04:10:01;;;;;;;0.60;0.60;;;-0.30;1.40;;;0.11;100.00;96633.55;649811;216;31501;-76
2022/02/09 04:13:03;;;;;;;0.50;0.50;;;-0.30;1.40;;;0.09;100.00;96635.33;622557;226;31920;-77
2022/02/09 04:15:52;;;;;;;0.40;0.40;;;-0.30;1.40;;;0.02;100.00;96627.06;648202;216;31358;-76
2022/02/09 04:38:50;;;;;;;0.50;0.45;;;-0.60;1.40;;;-0.34;100.00;96613.97;649851;212;31635;-77
2022/02/09 04:47:06;;;;;;;0.73;0.47;;;-0.70;1.40;;;-0.45;100.00;96602.91;618523;222;31832;-77
2022/02/09 04:58:15;;;;;;;0.60;0.60;;;-0.80;1.40;;;-0.58;100.00;96603.36;651700;212;31504;-78
2022/02/09 05:00:57;;;;;;;0.70;0.60;;;-0.90;1.40;;;-0.66;100.00;96602.67;617024;226;31868;-77
2022/02/09 05:03:57;;;;;;;0.90;0.60;;;-1.00;1.40;;;-0.70;100.00;96606.17;651047;216;31523;-77
2022/02/09 05:21:15;;;;;;;0.40;0.40;;;-1.20;1.40;;;-0.96;100.00;96594.68;644601;216;31479;-77
2022/02/09 05:26:21;;;;;;;0.82;0.77;;;-1.20;1.40;;;-0.97;100.00;96598.58;650056;213;31585;-75
2022/02/09 05:28:52;;;;;;;3.30;0.98;;;-1.20;1.40;;;-0.97;100.00;96590.59;644661;216;31609;-77
2022/02/09 05:31:34;;;;;;;0.40;0.30;;;-1.20;1.40;;;-0.96;100.00;96587.59;647787;216;31509;-77
2022/02/09 05:35:51;;;;;;;1.10;0.80;;;-1.30;1.40;;;-1.02;100.00;96576.39;645146;213;31545;-77
2022/02/09 05:38:39;;;;;;;1.10;1.00;;;-1.30;1.40;;;-1.03;100.00;96577.28;644425;212;31492;-76
2022/02/09 05:41:27;;;;;;;1.10;0.90;;;-1.30;1.40;;;-1.05;100.00;96584.59;651647;216;31552;-77
2022/02/09 05:44:10;;;;;;;0.60;0.60;;;-1.30;1.40;;;-1.05;100.00;96591.52;646071;216;31495;-78
2022/02/09 05:47:41;;;;;;;1.20;0.70;;;-1.30;1.40;;;-1.00;100.00;96594.23;648134;216;32577;-77
2022/02/09 05:49:59;;;;;;;0.50;0.50;;;-1.20;1.40;;;-0.98;100.00;96590.38;647733;212;31510;-77
2022/02/09 05:52:42;;;;;;;0.50;0.50;;;-1.20;1.40;;;-0.97;100.00;96595.73;648195;216;31964;-77
2022/02/09 05:58:10;;;;;;;0.70;0.60;;;-1.10;1.40;;;-0.95;100.00;96589.13;622982;226;31791;-76
2022/02/09 06:00:49;;;;;;;0.40;0.40;;;-1.20;1.40;;;-0.98;100.00;96591.97;647150;212;31515;-77
2022/02/09 06:03:34;;;;;;;0.40;0.30;;;-1.30;1.40;;;-1.01;100.00;96591.05;643153;217;31744;-77
2022/02/09 06:06:15;;;;;;;0.55;0.47;;;-1.30;1.40;;;-0.97;100.00;96593.34;643256;215;31718;-77
2022/02/09 06:09:01;;;;;;;0.40;0.40;;;-1.20;1.40;;;-0.98;100.00;96593.82;647482;216;31742;-77
2022/02/09 06:11:47;;;;;;;0.40;0.40;;;-1.20;1.40;;;-0.98;100.00;96590.69;649684;216;31585;-77
2022/02/09 06:14:44;;;;;;;0.60;0.52;;;-1.30;1.40;;;-0.99;100.00;96586.89;646162;212;31669;-77
2022/02/09 06:20:13;;;;;;;0.50;0.50;;;-1.30;1.40;;;-1.05;100.00;96586.77;648287;212;31508;-77
2022/02/09 06:22:59;;;;;;;0.70;0.70;;;-1.30;1.40;;;-1.04;100.00;96592.67;648301;216;31472;-77
2022/02/09 06:25:41;;;;;;;0.40;0.40;;;-1.30;1.40;;;-1.08;100.00;96595.01;646164;212;31507;-76
2022/02/09 06:28:23;;;;;;;0.40;0.40;;;-1.30;1.40;;;-1.12;100.00;96602.96;647366;212;32168;-77
2022/02/09 06:31:04;;;;;;;0.43;0.30;;;-1.40;1.40;;;-1.16;100.00;96599.23;644921;216;31500;-77
2022/02/09 06:35:53;;;;;;;0.80;0.62;;;-1.50;1.40;;;-1.22;100.00;96599.42;648129;212;31577;-77
2022/02/09 06:38:38;;;;;;;0.88;0.65;;;-1.50;1.40;;;-1.24;100.00;96599.70;647700;216;31542;-77
2022/02/09 06:41:14;;;;;;;1.50;0.60;;;-1.50;1.40;;;-1.25;100.00;96602.06;647667;216;31557;-77
2022/02/09 06:43:59;;;;;;;1.10;1.00;;;-1.50;1.40;;;-1.22;100.00;96595.94;650371;216;31767;-76
2022/02/09 06:46:41;;;;;;;0.70;0.70;;;-1.50;1.40;;;-1.25;100.00;96600.77;647234;212;31579;-77
2022/02/09 06:49:23;;;;;;;0.80;0.80;;;-1.50;1.40;;;-1.25;100.00;96601.08;646302;216;31493;-78
2022/02/09 06:52:07;;;;;;;0.80;0.70;;;-1.60;1.40;;;-1.25;100.00;96601.56;645366;212;31549;-77
2022/02/09 06:55:08;;;;;;;0.50;0.40;;;-1.50;1.40;;;-0.97;100.00;96606.59;617527;226;31883;-78
2022/02/09 06:57:44;;;;;;;0.65;0.65;;;-1.20;1.40;;;-0.89;100.00;96608.27;619440;226;31989;-77
2022/02/09 07:00:12;;;;;;;0.88;0.88;;;-1.10;1.40;;;-1.00;100.00;96605.73;645812;216;31529;-77
2022/02/09 07:02:54;;;;;;;0.60;0.60;;;-1.30;1.40;;;-0.94;100.00;96602.47;622574;222;32026;-77
2022/02/09 07:05:36;;;;;;;0.70;0.40;;;-1.20;1.40;;;-0.90;100.00;96612.75;649200;216;31524;-77
2022/02/09 07:08:18;;;;;;;0.80;0.80;;;-1.20;1.40;;;-0.82;100.00;96605.84;646450;212;31507;-77
2022/02/09 07:11:05;;;;;;;1.00;0.85;;;-1.10;1.40;;;-0.78;100.00;96599.67;648443;216;31872;-78
2022/02/09 07:13:53;;;;;;;1.20;0.60;;;-1.00;1.40;;;-0.68;100.00;96595.14;619681;226;32037;-80
2022/02/09 07:16:41;;;;;;;1.35;0.75;;;-0.90;1.40;;;-0.56;100.00;96596.27;648871;216;31603;-75
2022/02/09 07:19:30;;;;;;;0.60;0.57;;;-0.90;1.40;;;-0.44;100.00;96594.47;646587;216;42563;-79
2022/02/09 07:22:15;;;;;;;0.40;0.35;;;-0.80;1.40;;;-0.36;100.00;96595.66;620099;222;31857;-80
2022/02/09 07:25:04;;;;;;;1.20;0.55;;;-0.60;1.40;;;-0.23;100.00;96593.25;647614;212;31470;-80
2022/02/09 07:30:24;;;;;;;0.50;0.50;;;-0.50;1.40;;;-0.01;100.00;96583.14;648186;216;31628;-79
2022/02/09 07:35:53;;;;;;;3.40;1.30;;;-0.30;1.40;;;0.15;100.00;96583.75;650264;212;42179;-80
2022/02/09 07:41:18;;;;;;;1.70;1.30;;;-0.10;1.40;;;0.38;100.00;96581.73;648496;216;31549;-79
2022/02/09 07:44:16;;;;;;;0.70;0.70;;;0.00;1.40;;;0.55;100.00;96587.98;646966;212;31576;-75
2022/02/09 07:47:03;;;;;;;0.65;0.65;;;0.20;1.40;;;0.72;100.00;96580.20;650116;216;31653;-77
2022/02/09 07:49:51;;;;;;;1.30;1.20;;;0.40;1.40;;;0.83;100.00;96578.41;618158;222;42996;-76
2022/02/09 07:52:24;;;;;;;1.00;0.90;;;0.50;1.40;;;0.96;100.00;96582.08;649862;216;31832;-75
2022/02/09 07:55:04;;;;;;;1.00;1.00;;;0.70;1.40;;;1.02;100.00;96576.55;649182;212;32159;-76
2022/02/09 07:57:45;;;;;;;1.20;0.70;;;0.60;1.40;;;1.08;100.00;96574.23;647713;212;31608;-75
2022/02/09 08:00:30;;;;;;;2.10;1.30;;;0.70;1.40;;;1.15;100.00;96573.59;649923;216;31619;-77
2022/02/09 08:03:12;;;;;;;1.10;1.00;;;0.80;1.40;;;1.29;100.00;96569.89;646181;216;31592;-75
2022/02/09 08:05:54;;;;;;;0.70;0.70;;;0.90;1.40;;;1.42;100.00;96577.22;646076;212;33468;-75
2022/02/09 08:08:36;;;;;;;0.50;0.50;;;1.00;1.40;;;1.61;100.00;96578.00;645911;212;32251;-75
2022/02/09 08:11:25;;;;;;;0.60;0.60;;;1.30;1.40;;;1.81;100.00;96582.75;646803;212;31551;-77
2022/02/09 08:31:22;;;;;;;0.90;0.70;;;2.80;1.40;;;3.37;100.00;96571.36;648253;212;31466;-76
2022/02/09 08:35:56;;;;;;;1.02;0.68;;;3.00;1.40;;;3.74;100.00;96565.73;648599;212;31455;-79
2022/02/09 08:38:43;;;;;;;1.12;1.02;;;3.30;1.40;;;4.00;100.00;96574.44;646880;212;31531;-76
2022/02/09 08:41:23;;;;;;;2.65;1.20;;;3.40;1.40;;;4.23;100.00;96568.95;631976;222;31767;-80
2022/02/09 08:44:11;;;;;;;1.00;0.80;;;3.60;1.40;;;4.47;100.00;96565.95;644983;212;31628;-77
2022/02/09 08:46:53;;;;;;;2.40;1.00;;;3.70;1.40;;;4.43;100.00;96569.86;647992;212;31888;-75
2022/02/09 08:49:38;;;;;;;1.40;0.90;;;3.70;1.40;;;4.54;100.00;96572.38;618244;226;31834;-76
2022/02/09 08:52:20;;;;;;;0.80;0.68;;;3.80;1.40;;;4.66;100.00;96567.52;646991;212;31528;-77
2022/02/09 08:55:01;;;;;;;1.25;0.85;;;3.90;1.40;;;4.62;100.00;96568.88;645993;216;31541;-76
2022/02/09 08:57:43;;;;;;;1.30;0.70;;;3.80;1.40;;;4.54;100.00;96573.94;647346;212;42926;-75
2022/02/09 09:00:28;;;;;;;1.17;1.00;;;3.60;1.40;;;4.57;100.00;96571.04;649163;212;32224;-76
2022/02/09 09:03:15;;;;;;;1.12;1.00;;;3.80;1.40;;;4.75;100.00;96568.83;647331;212;31592;-76
2022/02/09 09:05:50;;;;;;;2.87;1.37;;;3.80;1.40;;;4.59;100.00;96569.08;648862;216;42217;-75
2022/02/09 09:12:01;;;;;;;4.10;2.30;;;4.50;1.40;;;5.44;100.00;96566.66;648493;216;42189;-75
2022/02/09 09:15:18;;;;;;;2.85;1.55;;;5.60;1.40;;;7.02;100.00;96561.88;647373;216;42152;-75
2022/02/09 09:17:41;;;;;;;3.80;2.75;;;7.90;1.40;;;8.37;96.96;96553.02;648392;216;31751;-78
2022/02/09 09:58:01;;;;;;;0.70;0.50;;;9.20;1.40;;;11.61;67.55;96540.13;647476;216;32051;-76
2022/02/09 09:59:17;;;;;;;0.70;0.40;;;11.80;1.40;;;14.49;52.88;96533.69;644967;212;33554;-80
2022/02/09 10:31:29;;;;;;;1.10;0.50;;;12.60;1.40;;;15.99;43.77;96523.30;621379;225;31840;-80
2022/02/09 10:36:02;;;;;;;0.75;0.40;;;15.40;1.40;;;15.95;41.92;96520.77;620837;226;31818;-81
2022/02/09 10:38:44;;;;;;;0.60;0.50;;;12.90;1.40;;;17.77;40.47;96514.73;620569;226;32334;-80
2022/02/09 10:41:37;;;;;;;1.10;0.60;;;14.40;1.40;;;17.27;40.73;96512.50;615515;226;31837;-77
2022/02/09 10:44:16;;;;;;;0.50;0.40;;;14.30;1.40;;;18.89;40.56;96509.55;618923;225;31904;-77
2022/02/09 10:46:56;;;;;;;1.02;0.65;;;16.10;1.40;;;20.30;36.32;96502.53;646426;216;31607;-77
2022/02/09 10:49:37;;;;;;;0.80;0.60;;;17.40;1.40;;;21.13;34.41;96495.72;647099;216;31602;-77
2022/02/09 10:52:18;;;;;;;0.60;0.50;;;18.50;1.40;;;20.00;38.08;96500.94;648614;216;31538;-77
2022/02/09 10:55:12;;;;;;;1.40;0.40;;;16.10;1.40;;;17.42;37.44;96498.77;648521;216;31495;-78
2022/02/09 10:58:04;;;;;;;0.95;0.70;;;15.00;1.40;;;16.58;38.33;96503.15;630839;221;42475;-76
2022/02/09 11:00:46;;;;;;;0.70;0.50;;;13.40;1.40;;;19.28;37.70;96498.72;645789;212;31701;-77
2022/02/09 11:03:27;;;;;;;1.67;0.70;;;17.00;1.40;;;19.92;35.58;96495.27;646933;216;31523;-76
2022/02/09 11:06:15;;;;;;;0.60;0.50;;;17.40;1.40;;;19.28;34.34;96488.89;643106;216;31789;-77
2022/02/09 11:08:59;;;;;;;0.93;0.50;;;16.70;1.40;;;19.16;36.47;96496.80;647439;216;31644;-77
2022/02/09 11:11:47;;;;;;;0.70;0.50;;;16.40;1.40;;;18.64;34.96;96493.77;647340;216;31505;-78
2022/02/09 11:14:28;;;;;;;0.70;0.50;;;15.80;1.40;;;20.08;34.56;96486.03;646253;216;31508;-77
2022/02/09 11:17:10;;;;;;;1.00;0.60;;;16.20;1.40;;;22.08;33.40;96479.80;647287;216;31557;-78
2022/02/09 11:19:52;;;;;;;0.70;0.60;;;18.20;1.40;;;21.31;32.88;96476.58;647576;212;32286;-77
2022/02/09 11:22:40;;;;;;;0.60;0.60;;;18.10;1.40;;;20.58;32.94;96478.42;648055;212;31482;-78
2022/02/09 11:25:28;;;;;;;0.68;0.50;;;16.00;1.40;;;20.71;34.74;96477.33;646272;212;31703;-77
2022/02/09 11:28:36;;;;;;;1.20;0.60;;;16.90;1.40;;;21.75;32.67;96472.28;646588;212;42108;-77
2022/02/09 11:31:18;;;;;;;1.27;0.70;;;18.30;1.40;;;20.18;33.24;96470.31;646704;212;31488;-78
2022/02/09 11:36:26;;;;;;;0.70;0.60;;;17.70;1.40;;;21.92;31.29;96461.08;646826;216;31535;-76
2022/02/09 11:39:04;;;;;;;1.20;0.60;;;17.60;1.40;;;21.04;31.94;96458.28;619919;226;31989;-77
2022/02/09 11:50:56;;;;;;;0.60;0.47;;;17.30;1.40;;;21.86;32.56;96443.11;646944;216;31483;-77
2022/02/09 11:56:55;;;;;;;0.90;0.70;;;17.60;1.40;;;20.80;33.21;96447.95;619473;226;31863;-78
2022/02/09 12:10:51;;;;;;;0.62;0.30;;;17.50;1.40;;;20.04;33.65;96425.41;620502;226;31986;-77
2022/02/09 12:16:51;;;;;;;0.60;0.40;;;19.70;1.40;;;22.31;31.85;96420.64;646062;212;42138;-77
2022/02/09 12:19:44;;;;;;;1.67;0.40;;;18.70;1.40;;;20.28;33.74;96414.52;647389;212;32018;-76
2022/02/09 12:22:26;;;;;;;0.50;0.32;;;17.80;1.40;;;20.35;34.38;96415.95;647143;212;31475;-77
2022/02/09 12:25:09;;;;;;;0.70;0.50;;;18.60;1.40;;;19.62;35.39;96408.97;647048;216;31436;-76
2022/02/09 12:27:49;;;;;;;0.93;0.37;;;17.80;1.40;;;20.92;34.00;96401.18;647297;216;31842;-77
2022/02/09 12:30:34;;;;;;;1.30;0.62;;;18.50;1.40;;;19.03;34.65;96405.24;648048;216;31677;-77
2022/02/09 12:35:51;;;;;;;0.60;0.40;;;17.90;1.40;;;20.72;33.32;96391.29;621411;226;36084;-77
2022/02/09 12:38:39;;;;;;;0.70;0.40;;;17.70;1.40;;;19.13;35.99;96389.86;620968;222;32051;-76
2022/02/09 12:41:21;;;;;;;0.60;0.50;;;16.50;1.40;;;19.88;36.07;96382.80;646799;216;31467;-77
2022/02/09 12:44:07;;;;;;;1.00;0.90;;;17.20;1.40;;;19.15;36.46;96388.91;647877;216;31834;-77
2022/02/09 12:46:48;;;;;;;1.23;0.47;;;16.10;1.40;;;18.84;36.82;96383.66;647784;216;31517;-77
2022/02/09 12:49:39;;;;;;;0.50;0.40;;;15.90;1.40;;;17.99;37.73;96384.44;646483;216;31775;-78
2022/02/09 12:52:28;;;;;;;0.70;0.50;;;14.50;1.40;;;17.92;39.30;96388.47;621405;226;31777;-77
2022/02/09 12:55:27;;;;;;;0.88;0.30;;;15.40;1.40;;;17.46;39.58;96385.37;647808;216;32205;-77
2022/02/09 12:58:09;;;;;;;0.80;0.30;;;15.30;1.40;;;18.87;38.63;96379.16;630605;222;31712;-77
2022/02/09 13:00:51;;;;;;;0.80;0.50;;;17.10;1.40;;;19.04;38.82;96375.69;648497;216;31939;-76
2022/02/09 13:03:33;;;;;;;1.37;0.80;;;17.30;1.40;;;17.60;39.74;96374.25;648028;216;31476;-76
2022/02/09 13:06:14;;;;;;;0.50;0.30;;;15.70;1.40;;;19.40;37.90;96371.72;643031;216;31635;-78
2022/02/09 13:08:56;;;;;;;0.60;0.32;;;17.90;1.40;;;18.26;39.26;96373.73;647336;216;31778;-77
2022/02/09 13:11:42;;;;;;;0.50;0.30;;;16.20;1.40;;;19.48;36.60;96366.50;647593;212;31503;-76
2022/02/09 13:14:32;;;;;;;0.40;0.25;;;16.10;1.40;;;19.52;38.37;96368.89;647149;216;31519;-77
2022/02/09 13:17:27;;;;;;;0.60;0.50;;;17.60;1.40;;;20.93;35.76;96361.23;646677;216;31478;-77
2022/02/09 13:51:56;;;;;;;2.50;0.52;;;16.50;1.40;;;19.93;37.32;96358.80;648497;216;31633;-76
2022/02/09 14:04:33;;;;;;;1.30;0.40;;;18.60;1.40;;;19.50;38.57;96340.56;648059;216;32077;-77
2022/02/09 14:31:30;;;;;;;0.50;0.30;;;15.60;1.40;;;18.12;41.84;96313.80;647505;212;31579;-77
2022/02/09 14:47:13;;;;;;;1.40;0.30;;;15.10;1.40;;;17.12;44.03;96312.01;647438;216;42107;-76
2022/02/09 14:47:18;;;;;;;0.60;0.30;;;16.70;1.40;;;16.72;45.77;96304.64;648119;212;34141;-78
2022/02/09 14:50:41;;;;;;;0.60;0.30;;;15.10;1.40;;;17.13;45.50;96301.95;648157;212;31501;-77
2022/02/09 14:52:42;;;;;;;0.77;0.40;;;16.80;1.40;;;16.83;45.82;96300.38;619237;226;42491;-77
2022/02/09 14:55:31;;;;;;;1.10;0.40;;;15.30;1.40;;;16.96;45.41;96301.73;647282;216;31745;-76
2022/02/09 14:58:12;;;;;;;2.28;1.27;;;14.60;1.40;;;16.38;47.10;96302.38;620680;226;32064;-77
2022/02/09 15:01:00;;;;;;;0.68;0.40;;;14.20;1.40;;;16.13;48.66;96302.03;620687;222;32116;-77
2022/02/09 15:06:41;;;;;;;1.00;0.40;;;14.00;1.40;;;16.02;48.46;96296.83;618147;226;32122;-76
2022/02/09 15:09:40;;;;;;;1.00;0.43;;;14.10;1.40;;;15.68;50.47;96296.73;620696;222;31835;-79
2022/02/09 15:15:11;;;;;;;0.50;0.30;;;12.70;1.40;;;14.51;53.17;96295.50;620286;226;32262;-77
2022/02/09 15:18:15;;;;;;;0.70;0.30;;;12.20;1.40;;;14.18;56.67;96301.62;619950;225;31821;-77
2022/02/09 15:23:23;;;;;;;1.13;0.47;;;14.40;1.40;;;15.47;54.65;96290.20;646893;212;31637;-77
2022/02/09 15:26:05;;;;;;;1.10;0.60;;;13.30;1.40;;;15.10;58.44;96287.30;646704;216;31466;-76
2022/02/09 15:28:45;;;;;;;3.20;0.50;;;13.70;1.40;;;14.97;61.15;96282.20;646612;216;32836;-76
2022/02/09 15:31:44;;;;;;;1.60;0.40;;;13.80;1.40;;;14.42;58.89;96284.31;647640;212;31622;-78
2022/02/09 15:35:58;;;;;;;0.75;0.60;;;12.60;1.40;;;14.02;63.89;96281.77;645694;216;31482;-76
2022/02/09 15:38:46;;;;;;;0.90;0.50;;;12.10;1.40;;;13.18;71.20;96282.61;647361;216;31486;-77
2022/02/09 15:41:37;;;;;;;1.10;0.60;;;11.40;1.40;;;12.97;72.40;96274.38;619033;222;31800;-79
2022/02/09 15:56:17;;;;;;;0.88;0.47;;;11.30;1.40;;;12.88;71.36;96272.96;620230;226;31839;-79
2022/02/09 15:58:36;;;;;;;5.63;0.50;;;12.60;1.40;;;14.10;65.22;96272.53;647365;216;32100;-79
2022/02/09 16:23:47;;;;;;;0.57;0.40;;;7.50;1.40;;;9.57;92.76;96277.18;619864;222;32329;-78
2022/02/09 16:44:16;;;;;;;0.80;0.30;;;5.90;1.40;;;7.23;100.00;96279.15;639247;213;31574;-79
2022/02/09 16:44:37;;;;;;;0.80;0.50;;;5.30;1.40;;;6.54;100.00;96286.63;647186;212;31588;-78
2022/02/09 16:47:53;;;;;;;1.62;0.37;;;5.00;1.40;;;6.38;100.00;96286.74;645454;216;31494;-77
2022/02/09 16:50:32;;;;;;;0.70;0.40;;;5.00;1.40;;;6.12;100.00;96286.73;647658;212;32081;-77
2022/02/09 16:53:22;;;;;;;3.30;0.50;;;4.70;1.40;;;5.89;100.00;96279.52;647593;212;31752;-77
2022/02/09 16:56:18;;;;;;;0.60;0.47;;;4.50;1.40;;;5.74;100.00;96280.74;620097;226;31850;-78
2022/02/09 17:21:23;;;;;;;1.70;0.80;;;3.90;1.40;;;4.63;100.00;96275.27;646866;216;31530;-77
2022/02/09 17:24:05;;;;;;;1.30;1.10;;;3.70;1.40;;;4.43;100.00;96277.37;646315;212;31819;-77
2022/02/09 17:26:54;;;;;;;1.30;1.00;;;3.30;1.40;;;4.26;100.00;96280.88;647974;212;42437;-78
2022/02/09 17:32:49;;;;;;;2.72;1.95;;;2.90;1.40;;;4.01;100.00;96279.16;648316;216;42150;-77
2022/02/09 17:36:02;;;;;;;4.32;2.00;;;2.70;1.40;;;3.78;100.00;96284.09;620733;225;32603;-77
2022/02/09 17:38:41;;;;;;;5.03;2.97;;;2.60;1.40;;;3.63;100.00;96280.03;647412;216;31914;-76
2022/02/09 17:53:47;;;;;;;2.42;2.22;;;3.00;1.40;;;3.74;100.00;96270.12;648039;216;31738;-76
2022/02/09 17:56:28;;;;;;;1.40;1.30;;;3.20;1.40;;;3.65;100.00;96267.10;620614;222;31864;-75
2022/02/09 17:59:13;;;;;;;2.08;1.98;;;2.90;1.40;;;3.35;100.00;96267.85;643765;214;32138;-77
2022/02/09 18:01:50;;;;;;;2.20;1.70;;;2.40;1.40;;;3.13;100.00;96269.33;648614;216;31560;-76
2022/02/09 18:04:30;;;;;;;0.98;0.95;;;2.00;1.40;;;2.87;100.00;96274.45;648300;216;31560;-76
2022/02/09 18:07:17;;;;;;;0.90;0.70;;;1.60;1.40;;;2.68;100.00;96280.22;636960;212;31734;-76
2022/02/09 18:10:03;;;;;;;1.20;1.10;;;1.40;1.40;;;2.45;100.00;96277.69;647234;212;31553;-76
2022/02/09 18:12:56;;;;;;;0.88;0.88;;;1.20;1.40;;;2.26;100.00;96276.69;643782;216;31584;-75
2022/02/09 18:29:43;;;;;;;1.10;0.60;;;2.00;1.40;;;2.65;100.00;96262.18;619414;226;32218;-76
2022/02/09 18:32:54;;;;;;;1.48;1.30;;;2.30;1.40;;;2.53;100.00;96259.80;646493;212;31540;-76
2022/02/09 18:44:30;;;;;;;1.00;0.90;;;2.50;1.40;;;2.96;100.00;96261.89;646997;216;31481;-76
2022/02/09 18:47:28;;;;;;;0.93;0.82;;;2.60;1.40;;;2.99;100.00;96257.28;619113;223;32512;-75
2022/02/09 19:04:12;;;;;;;0.98;0.82;;;2.20;1.40;;;2.83;100.00;96240.67;648028;216;31545;-77
2022/02/09 19:15:49;;;;;;;0.77;0.77;;;1.80;1.40;;;2.32;100.00;96236.48;632739;221;31738;-77
2022/02/09 19:47:39;;;;;;;0.90;0.80;;;1.00;1.40;;;1.54;100.00;96250.89;646941;216;31529;-76
2022/02/09 19:50:30;;;;;;;1.00;1.00;;;1.10;1.40;;;1.62;100.00;96244.91;646873;212;32078;-76
2022/02/09 19:55:53;;;;;;;0.90;0.90;;;1.20;1.40;;;1.68;100.00;96247.92;646201;216;31774;-76
2022/02/09 19:58:40;;;;;;;2.40;0.80;;;1.30;1.40;;;1.67;100.00;96245.31;647110;216;32403;-76
2022/02/09 20:01:12;;;;;;;2.30;0.40;;;1.20;1.40;;;1.75;100.00;96240.84;648524;212;31522;-76
2022/02/09 20:03:51;;;;;;;0.80;0.80;;;1.30;1.40;;;1.68;100.00;96239.80;646744;216;31560;-77
2022/02/09 20:06:32;;;;;;;0.80;0.70;;;1.20;1.40;;;1.48;100.00;96237.00;614794;226;32065;-76
2022/02/09 20:09:15;;;;;;;0.50;0.50;;;0.90;1.40;;;1.41;100.00;96236.60;646864;216;31508;-76
2022/02/09 20:12:06;;;;;;;1.30;1.20;;;0.70;1.40;;;1.30;100.00;96240.20;646268;216;31958;-77
2022/02/09 20:14:56;;;;;;;0.80;0.80;;;0.50;1.40;;;1.07;100.00;96233.45;647137;216;32142;-76
2022/02/09 20:17:39;;;;;;;0.70;0.60;;;0.40;1.40;;;1.03;100.00;96228.47;648029;216;31601;-76
2022/02/09 20:20:28;;;;;;;0.50;0.40;;;0.50;1.40;;;1.03;100.00;96229.63;647008;216;42133;-77
2022/02/09 20:23:05;;;;;;;1.42;1.12;;;0.50;1.40;;;1.08;100.00;96223.09;647272;216;31556;-76
2022/02/09 20:28:22;;;;;;;2.50;1.05;;;0.50;1.40;;;1.03;100.00;96232.16;646729;212;31578;-76
2022/02/09 20:31:07;;;;;;;2.42;0.90;;;0.50;1.40;;;1.12;100.00;96228.69;620696;222;32537;-77
2022/02/09 20:35:55;;;;;;;1.70;0.85;;;0.70;1.40;;;1.11;100.00;96228.14;619386;226;31834;-76
2022/02/09 20:38:38;;;;;;;0.57;0.57;;;0.70;1.40;;;1.11;100.00;96228.58;619417;225;31926;-77
2022/02/09 20:41:21;;;;;;;1.20;1.20;;;0.70;1.40;;;1.21;100.00;96227.05;647399;216;32099;-77
2022/02/09 20:44:07;;;;;;;0.90;0.70;;;0.90;1.40;;;1.25;100.00;96229.42;648678;216;31645;-77
2022/02/09 20:46:43;;;;;;;0.80;0.73;;;0.90;1.40;;;1.29;100.00;96225.23;647803;216;31520;-77
2022/02/09 20:49:25;;;;;;;1.80;1.42;;;1.00;1.40;;;1.29;100.00;96232.56;647275;216;31533;-76
2022/02/09 20:52:13;;;;;;;0.90;0.90;;;0.90;1.40;;;1.28;100.00;96231.41;646219;212;31513;-76
2022/02/09 20:54:52;;;;;;;1.30;1.20;;;0.90;1.40;;;1.17;100.00;96227.21;648035;216;31551;-76
2022/02/09 21:00:16;;;;;;;1.10;0.80;;;0.60;1.40;;;1.13;100.00;96224.65;647467;212;31807;-76
2022/02/09 21:02:59;;;;;;;0.55;0.55;;;0.70;1.40;;;1.12;100.00;96221.20;646892;216;31507;-76
2022/02/09 21:05:41;;;;;;;0.50;0.50;;;0.70;1.40;;;1.06;100.00;96219.63;648206;216;31607;-76
2022/02/09 21:11:26;;;;;;;0.60;0.55;;;0.60;1.40;;;1.16;100.00;96215.46;647763;216;31559;-76
2022/02/09 21:14:18;;;;;;;0.60;0.60;;;0.80;1.40;;;1.25;100.00;96215.30;648166;216;31513;-75
2022/02/09 21:17:15;;;;;;;0.70;0.52;;;0.80;1.40;;;1.19;100.00;96214.26;646023;216;42164;-77
2022/02/09 21:20:15;;;;;;;0.80;0.80;;;0.80;1.40;;;1.27;100.00;96218.41;647694;216;42115;-77
2022/02/09 21:22:43;;;;;;;0.40;0.40;;;0.80;1.40;;;1.33;100.00;96211.98;647807;216;43002;-76
2022/02/09 21:28:05;;;;;;;0.50;0.40;;;1.00;1.40;;;1.33;100.00;96212.98;647184;212;31524;-76
2022/02/09 21:53:30;;;;;;;0.60;0.60;;;0.50;1.40;;;1.06;100.00;96205.39;647576;216;42125;-76